This is the latest recevied weather packets stored in our database for station/object W9PEM-13. If no packets are shown the sender has not sent any weather packets the latest 10 day(s).
| Time | Temp. | Humidity | Pressure | Rain* | Wind** | Luminosity | Snow |
|---|---|---|---|---|---|---|---|
| 1777515613 | 5° C | 98% | 985.8 hPa | 0 mm | - | 0 W/m² | - |
| 1777515016 | 5° C | 97% | 985.7 hPa | 0.25 mm | - | 0 W/m² | - |
| 1777514533 | 5° C | 96% | 985.6 hPa | 1.27 mm | - | 0 W/m² | - |
| 1777514053 | 5° C | 96% | 985.7 hPa | 3.3 mm | - | 0 W/m² | - |
| 1777513452 | 5° C | 96% | 985.8 hPa | 3.81 mm | - | 0 W/m² | - |
| 1777512853 | 5° C | 96% | 985.8 hPa | 3.81 mm | - | 0 W/m² | - |
| 1777512553 | 5° C | 96% | 985.8 hPa | 3.81 mm | - | 0 W/m² | - |
| 1777512013 | 5.56° C | 95% | 985.7 hPa | 3.81 mm | - | 0 W/m² | - |
| 1777511715 | 5.56° C | 94% | 985.7 hPa | 3.56 mm | - | 0 W/m² | - |
| 1777511115 | 6.11° C | 92% | 985.6 hPa | 3.56 mm | - | 0 W/m² | - |
| 1777510515 | 6.11° C | 87% | 985.4 hPa | 0.76 mm | - | 0 W/m² | - |
| 1777509436 | 6.67° C | 84% | 985.2 hPa | 0 mm | - | 2 W/m² | - |
| 1777508837 | 6.67° C | 85% | 985.2 hPa | 0 mm | - | 3 W/m² | - |
| 1777508236 | 6.67° C | 83% | 985.1 hPa | 0 mm | - | 11 W/m² | - |
| 1777507636 | 6.67° C | 82% | 985 hPa | 0 mm | - | 29 W/m² | - |
| 1777507037 | 6.67° C | 82% | 985 hPa | 0 mm | - | 39 W/m² | - |
| 1777506436 | 6.67° C | 81% | 984.9 hPa | 0 mm | - | 51 W/m² | - |
| 1777505836 | 6.67° C | 81% | 984.9 hPa | 0 mm | - | 49 W/m² | - |
| 1777505237 | 7.22° C | 80% | 984.9 hPa | 0 mm | - | 68 W/m² | - |
| 1777504636 | 7.22° C | 80% | 984.9 hPa | 0 mm | - | 133 W/m² | - |
| 1777504036 | 7.22° C | 80% | 984.8 hPa | 0 mm | - | 169 W/m² | - |
| 1777502656 | 6.67° C | 80% | 984.9 hPa | 0 mm | - | 98 W/m² | - |
| 1777502296 | 6.67° C | 80% | 984.9 hPa | 0 mm | - | 104 W/m² | - |
| 1777501096 | 6.67° C | 78% | 984.9 hPa | 0.51 mm | - | 157 W/m² | - |
| 1777500377 | 6.67° C | 78% | 984.9 hPa | 0.51 mm | - | 190 W/m² | - |
* Rain latest hour (hover to see other rain measurements)
** Current wind speed in m/s (hover to see current wind gust speed)